Time;durP1;ratioP1;P1;durP2;ratioP2;P2;SDS_P1;SDS_P2;PMS_P1;PMS_P2;Temp;Humidity;BMP_temperature;BMP_pressure;BME280_temperature;BME280_humidity;BME280_pressure;Samples;Min_cycle;Max_cycle;Signal;HPM_P1;HPM_P2
2021/12/03 00:03:33;;;;;;;15.68;5.45;;;;;;;2.68;70.74;97714.52;3882659;90;21051;-84
2021/12/03 00:09:36;;;;;;;20.40;6.53;;;;;;;2.63;71.07;97728.30;3882459;90;21094;-84
2021/12/03 00:15:56;;;;;;;13.48;5.40;;;;;;;2.55;70.76;97733.34;3891569;89;21059;-85
2021/12/03 00:21:57;;;;;;;15.40;4.90;;;;;;;2.52;71.03;97748.14;3886566;90;21075;-83
2021/12/03 00:27:59;;;;;;;12.20;3.42;;;;;;;2.49;70.77;97767.16;3877410;90;21064;-83
2021/12/03 00:34:04;;;;;;;9.63;3.08;;;;;;;2.38;70.27;97774.23;3882558;90;21050;-84
2021/12/03 00:46:26;;;;;;;12.07;2.70;;;;;;;2.18;69.58;97783.41;3815784;92;21056;-83
2021/12/03 00:52:27;;;;;;;7.30;2.95;;;;;;;2.11;69.82;97804.05;3820890;92;21203;-83
2021/12/03 00:58:32;;;;;;;11.25;3.37;;;;;;;2.02;69.72;97821.75;3877497;91;21052;-84
2021/12/03 01:04:33;;;;;;;11.15;3.60;;;;;;;1.98;69.63;97816.05;3873264;91;21087;-84
2021/12/03 01:10:34;;;;;;;10.80;3.20;;;;;;;1.93;69.49;97830.59;3879942;90;21612;-83
2021/12/03 01:16:39;;;;;;;10.58;3.10;;;;;;;1.89;69.30;97837.02;3829900;91;21121;-83
2021/12/03 01:22:42;;;;;;;9.80;3.35;;;;;;;1.87;69.20;97836.58;3884716;91;21186;-83
2021/12/03 01:29:21;;;;;;;8.93;3.80;;;;;;;1.85;69.22;97834.81;3877955;91;21132;-84
2021/12/03 01:35:24;;;;;;;8.65;3.22;;;;;;;1.78;69.06;97837.30;3833451;91;21095;-84
2021/12/03 01:41:27;;;;;;;10.30;3.55;;;;;;;1.78;69.12;97830.56;3870667;91;21090;-84
2021/12/03 01:47:44;;;;;;;9.60;3.47;;;;;;;1.73;69.06;97826.20;3829404;92;21370;-83
2021/12/03 01:53:54;;;;;;;8.33;3.37;;;;;;;1.72;69.25;97838.69;3827327;92;21406;-84
2021/12/03 01:59:56;;;;;;;14.10;3.87;;;;;;;1.72;69.14;97842.73;3867480;91;21123;-84
2021/12/03 02:05:59;;;;;;;9.20;3.50;;;;;;;1.68;69.16;97856.12;3917006;90;21146;-84
2021/12/03 02:12:00;;;;;;;9.18;3.33;;;;;;;1.66;69.29;97877.25;3891911;90;21141;-83
2021/12/03 02:18:08;;;;;;;10.82;3.20;;;;;;;1.66;69.31;97888.05;3874314;90;21543;-85
2021/12/03 02:24:09;;;;;;;11.18;3.87;;;;;;;1.61;69.23;97900.45;3804328;92;21099;-83
2021/12/03 02:30:13;;;;;;;5.90;2.35;;;;;;;1.61;69.72;97903.91;3880907;91;21525;-83
2021/12/03 02:36:17;;;;;;;9.75;3.40;;;;;;;1.61;69.42;97920.69;3809948;92;21162;-83
2021/12/03 02:42:21;;;;;;;11.00;3.00;;;;;;;1.55;69.55;97929.56;3880953;90;21103;-83
2021/12/03 02:48:24;;;;;;;8.53;3.00;;;;;;;1.51;69.22;97927.34;3881771;90;21640;-82
2021/12/03 02:54:26;;;;;;;10.60;3.92;;;;;;;1.49;69.17;97936.88;3798989;92;21614;-84
2021/12/03 03:00:29;;;;;;;13.78;3.92;;;;;;;1.46;69.59;97939.70;3869273;90;21087;-83
2021/12/03 03:06:34;;;;;;;8.65;3.37;;;;;;;1.44;69.54;97932.51;3872957;90;21135;-83
2021/12/03 03:12:38;;;;;;;12.53;3.55;;;;;;;1.39;69.87;97944.88;3872333;90;21599;-83
2021/12/03 03:18:40;;;;;;;6.00;2.55;;;;;;;1.30;69.82;97967.14;3811347;92;21052;-82
2021/12/03 03:24:42;;;;;;;10.03;3.90;;;;;;;1.23;69.49;97972.88;3812996;92;21108;-83
2021/12/03 03:30:49;;;;;;;9.63;3.25;;;;;;;1.16;69.64;97977.48;3859117;91;21068;-84
2021/12/03 03:36:51;;;;;;;;;;;;;;;1.08;69.70;97988.40;3878800;91;21653;-83
2021/12/03 03:42:59;;;;;;;6.12;2.95;;;;;;;1.03;69.57;98006.13;3853461;91;20349;-81
2021/12/03 03:49:01;;;;;;;10.00;2.87;;;;;;;0.96;69.98;98012.08;3811242;92;21644;-83
2021/12/03 03:55:04;;;;;;;9.68;3.83;;;;;;;0.89;69.96;98006.44;3857733;91;21084;-82
2021/12/03 04:01:12;;;;;;;14.13;4.08;;;;;;;0.88;69.93;98022.39;3858904;91;21546;-82
2021/12/03 04:07:16;;;;;;;13.70;4.40;;;;;;;0.95;70.29;98024.54;3879257;90;21083;-83
2021/12/03 04:13:18;;;;;;;8.25;2.70;;;;;;;0.91;70.48;98051.36;3872022;90;21099;-82
2021/12/03 04:19:19;;;;;;;11.15;2.92;;;;;;;0.86;70.21;98054.84;3880977;91;21127;-80
2021/12/03 04:25:22;;;;;;;7.20;2.55;;;;;;;0.85;70.23;98080.20;3802236;92;21097;-83
2021/12/03 04:31:24;;;;;;;10.82;3.22;;;;;;;0.85;70.55;98089.08;3873714;91;21146;-83
2021/12/03 04:37:25;;;;;;;7.37;3.12;;;;;;;0.88;70.68;98087.06;3872271;91;21598;-82
2021/12/03 04:43:28;;;;;;;10.23;3.17;;;;;;;0.93;70.76;98086.86;3874907;91;21072;-83
2021/12/03 04:49:30;;;;;;;11.60;4.33;;;;;;;0.91;70.82;98098.52;3871709;91;21985;-83
2021/12/03 04:55:36;;;;;;;10.85;4.28;;;;;;;0.89;71.11;98099.41;3900096;89;27200;-81
2021/12/03 05:01:40;;;;;;;7.43;3.00;;;;;;;0.89;71.08;98120.19;3908801;90;21688;-83
2021/12/03 05:07:57;;;;;;;6.72;3.33;;;;;;;0.81;71.10;98124.55;3909599;90;21116;-83
2021/12/03 05:13:57;;;;;;;11.83;4.08;;;;;;;0.78;71.28;98125.22;3902980;88;21362;-84
2021/12/03 05:19:58;;;;;;;11.12;4.45;;;;;;;0.75;71.04;98127.20;3902298;90;21134;-83
2021/12/03 05:26:00;;;;;;;9.85;4.08;;;;;;;0.75;71.49;98143.94;3890665;89;21086;-84
2021/12/03 05:32:02;;;;;;;10.40;4.22;;;;;;;0.76;71.79;98150.34;3891124;90;21064;-83
2021/12/03 05:38:04;;;;;;;8.13;3.58;;;;;;;0.70;71.54;98142.80;3901217;90;21553;-84
2021/12/03 05:44:06;;;;;;;7.55;3.30;;;;;;;0.69;71.75;98154.70;3897546;89;21644;-84
2021/12/03 05:50:11;;;;;;;11.15;4.60;;;;;;;0.67;71.75;98166.36;3899493;90;21635;-83
2021/12/03 05:56:14;;;;;;;12.53;4.83;;;;;;;0.66;72.08;98179.02;3803062;91;21083;-84
2021/12/03 06:02:16;;;;;;;14.75;5.37;;;;;;;0.65;72.23;98183.39;3895755;90;21060;-85
2021/12/03 06:08:17;;;;;;;11.68;5.20;;;;;;;0.70;72.66;98195.32;3884768;90;21628;-85
2021/12/03 06:14:20;;;;;;;9.70;4.30;;;;;;;0.66;72.81;98196.53;3910244;90;21666;-83
2021/12/03 06:20:21;;;;;;;11.10;4.30;;;;;;;0.60;72.71;98214.02;3885630;90;21072;-83
2021/12/03 06:26:46;;;;;;;8.15;4.30;;;;;;;0.63;73.00;98216.59;3888423;90;21086;-82
2021/12/03 06:32:48;;;;;;;10.63;5.62;;;;;;;0.59;72.86;98223.77;3881054;90;21107;-83
2021/12/03 06:38:50;;;;;;;12.28;5.87;;;;;;;0.39;73.10;98204.36;3883352;90;21014;-85
2021/12/03 06:44:54;;;;;;;14.13;5.83;;;;;;;0.38;73.27;98226.44;3897668;90;21610;-84
2021/12/03 06:50:56;;;;;;;13.32;6.37;;;;;;;0.38;73.04;98252.56;3891934;90;21553;-85
2021/12/03 06:56:58;;;;;;;16.02;6.08;;;;;;;0.20;73.10;98262.67;3903369;90;21106;-84
2021/12/03 07:02:59;;;;;;;18.25;7.33;;;;;;;0.15;73.48;98291.66;3927409;90;21569;-84
2021/12/03 07:09:03;;;;;;;19.65;7.87;;;;;;;0.05;73.87;98310.88;3911003;90;21575;-84
2021/12/03 07:15:07;;;;;;;16.95;7.40;;;;;;;-0.04;74.27;98313.58;3906591;90;21074;-83
2021/12/03 07:21:47;;;;;;;27.25;8.85;;;;;;;-0.04;74.27;98313.58;3894123;90;21367;-85
2021/12/03 07:27:49;;;;;;;20.57;8.17;;;;;;;-0.09;74.44;98326.66;3893325;90;21367;-85
2021/12/03 07:33:57;;;;;;;14.23;7.80;;;;;;;0.05;74.92;98339.13;3898059;90;21456;-86
2021/12/03 07:40:07;;;;;;;25.17;9.58;;;;;;;0.31;74.95;98350.57;3887562;90;21051;-85
2021/12/03 07:46:04;;;;;;;32.67;8.85;;;;;;;0.47;75.02;98351.03;3874992;90;21048;-84
2021/12/03 07:52:06;;;;;;;18.48;7.85;;;;;;;0.65;74.85;98366.01;3888470;90;21111;-83
2021/12/03 07:58:09;;;;;;;21.85;8.88;;;;;;;0.72;74.69;98371.66;3868946;90;21060;-83
2021/12/03 08:04:14;;;;;;;21.30;9.03;;;;;;;0.56;74.68;98384.13;3897224;89;21143;-85
2021/12/03 08:10:16;;;;;;;22.75;11.68;;;;;;;0.62;75.22;98387.41;3819216;90;21097;-84
2021/12/03 08:17:00;;;;;;;27.15;12.88;;;;;;;0.91;75.48;98396.86;3812333;91;21134;-85
2021/12/03 08:23:20;;;;;;;40.55;17.73;;;;;;;1.01;75.33;98411.28;3952675;90;21070;-84
2021/12/03 08:29:34;;;;;;;18.40;9.50;;;;;;;1.01;75.28;98421.52;3930612;90;21114;-84
2021/12/03 08:35:36;;;;;;;22.27;9.80;;;;;;;0.98;75.12;98436.20;3907418;90;21125;-83
2021/12/03 08:41:39;;;;;;;21.90;9.13;;;;;;;1.05;75.16;98442.65;3879296;90;21076;-84
2021/12/03 08:47:41;;;;;;;19.00;8.10;;;;;;;0.99;75.23;98443.95;3910909;90;21058;-82
2021/12/03 09:00:30;;;;;;;16.77;7.90;;;;;;;0.99;75.02;98466.86;3911780;90;21062;-84
2021/12/03 09:06:44;;;;;;;19.57;8.08;;;;;;;1.03;75.17;98481.84;3907070;90;21091;-82
2021/12/03 09:12:45;;;;;;;18.92;7.75;;;;;;;1.08;75.23;98488.39;3903395;90;21572;-84
2021/12/03 09:18:47;;;;;;;21.15;9.00;;;;;;;1.10;75.24;98494.23;3956361;89;21057;-84
2021/12/03 09:24:49;;;;;;;17.90;7.97;;;;;;;1.15;75.36;98498.90;3948988;89;21094;-84
2021/12/03 09:30:51;;;;;;;18.10;8.35;;;;;;;1.11;75.49;98504.69;3954007;89;21078;-84
2021/12/03 09:36:52;;;;;;;14.25;7.83;;;;;;;1.06;75.74;98506.24;3949270;89;21013;-83
2021/12/03 09:43:00;;;;;;;15.35;6.35;;;;;;;1.10;75.87;98515.80;3954031;89;21994;-83
2021/12/03 09:55:11;;;;;;;8.43;4.47;;;;;;;1.29;75.47;98525.07;3954018;89;21042;-83
2021/12/03 10:01:18;;;;;;;21.17;10.35;;;;;;;1.27;74.95;98514.36;3956863;89;21057;-82
2021/12/03 10:13:29;;;;;;;12.10;5.60;;;;;;;1.53;74.73;98517.14;3953743;89;21665;-83
2021/12/03 10:19:36;;;;;;;17.15;8.45;;;;;;;1.73;74.52;98518.29;3956627;89;21038;-83
2021/12/03 10:44:45;;;;;;;;;;;;;;;1.90;73.44;98503.31;3959221;89;21096;-84
2021/12/03 12:20:26;;;;;;;18.30;6.35;;;;;;;1.90;66.25;98490.37;3876403;89;21674;-81
2021/12/03 14:23:58;;;;;;;22.00;7.33;;;;;;;1.04;63.87;98566.97;3791222;92;21389;-83
2021/12/03 14:48:18;;;;;;;18.25;7.25;;;;;;;0.51;64.01;98578.75;3797371;93;21138;-84
2021/12/03 14:54:57;;;;;;;15.13;7.17;;;;;;;0.28;64.07;98587.58;3784921;93;21218;-85
2021/12/03 15:00:29;;;;;;;15.23;7.45;;;;;;;-0.06;64.50;98599.66;3776814;91;21055;-85
2021/12/03 15:06:51;;;;;;;20.40;7.67;;;;;;;-0.06;64.50;98599.66;3798713;91;21122;-85
2021/12/03 15:19:14;;;;;;;24.25;11.03;;;;;;;-0.33;64.07;98622.23;3811138;92;21068;-85
2021/12/03 15:25:19;;;;;;;34.10;10.50;;;;;;;-0.38;64.70;98617.02;3809937;92;21072;-86
2021/12/03 15:31:21;;;;;;;45.15;16.00;;;;;;;-0.32;65.31;98629.76;3807301;92;21079;-85
2021/12/03 16:08:26;;;;;;;37.80;15.57;;;;;;;-1.00;65.20;98639.67;3747712;92;21123;-83
2021/12/03 16:14:49;;;;;;;32.77;13.13;;;;;;;-1.07;64.94;98634.50;3810672;92;21190;-83
2021/12/03 16:51:57;;;;;;;67.33;26.70;;;;;;;-1.73;66.38;98672.34;3844967;91;21066;-85
2021/12/03 16:57:59;;;;;;;66.57;24.93;;;;;;;-1.71;67.36;98685.45;3848483;91;21159;-85
2021/12/03 17:17:08;;;;;;;60.43;22.63;;;;;;;-1.79;67.68;98699.59;3833386;91;21104;-84
2021/12/03 18:00:24;;;;;;;73.93;27.63;;;;;;;-2.00;68.84;98722.56;3768032;93;21120;-84
2021/12/03 18:13:04;;;;;;;62.70;22.30;;;;;;;-2.01;69.56;98715.62;3833537;91;21067;-85
2021/12/03 18:44:26;;;;;;;60.70;24.17;;;;;;;-2.08;69.47;98729.42;3748669;93;21942;-81
2021/12/03 18:56:33;;;;;;;55.83;21.33;;;;;;;-1.86;67.90;98732.19;3761458;93;21088;-81
2021/12/03 19:02:34;;;;;;;60.07;23.03;;;;;;;-1.80;68.24;98724.81;3767497;93;21083;-81
2021/12/03 19:08:44;;;;;;;55.67;19.87;;;;;;;-1.81;67.78;98721.89;3808800;93;21084;-80
2021/12/03 19:14:47;;;;;;;48.60;18.97;;;;;;;-1.76;67.26;98713.20;3772950;92;21069;-81
2021/12/03 19:20:43;;;;;;;47.77;19.47;;;;;;;-1.70;67.18;98713.87;3768592;92;21634;-81
2021/12/03 19:26:45;;;;;;;45.90;17.67;;;;;;;-1.70;67.75;98714.67;3766587;93;21032;-81
2021/12/03 19:32:47;;;;;;;42.40;17.13;;;;;;;-1.72;67.57;98710.69;3764498;93;21120;-81
2021/12/03 19:38:54;;;;;;;43.40;15.63;;;;;;;-1.70;66.57;98709.84;3766226;93;21117;-81
2021/12/03 19:44:59;;;;;;;42.03;15.10;;;;;;;-1.67;66.36;98718.09;3768193;93;21443;-81
2021/12/03 19:50:59;;;;;;;38.23;14.67;;;;;;;-1.66;65.74;98712.19;3769529;93;21063;-80
2021/12/03 19:57:01;;;;;;;36.23;14.07;;;;;;;-1.66;65.91;98704.14;3769155;93;22003;-80
2021/12/03 20:03:02;;;;;;;31.23;11.80;;;;;;;-1.66;65.98;98702.80;3571839;95;10000251;-79
2021/12/03 20:09:05;;;;;;;34.23;11.47;;;;;;;-1.63;65.16;98698.16;3768930;93;21164;-81
2021/12/03 20:15:10;;;;;;;28.63;10.50;;;;;;;-1.59;64.50;98693.77;3675459;95;22118;-80
2021/12/03 20:21:12;;;;;;;25.67;10.87;;;;;;;-1.58;64.27;98699.36;3755776;93;21129;-80
2021/12/03 20:27:17;;;;;;;27.77;10.00;;;;;;;-1.53;63.64;98705.97;3753258;93;21075;-80
2021/12/03 20:39:25;;;;;;;20.73;7.90;;;;;;;-1.52;63.81;98687.44;3753104;93;21523;-81
2021/12/03 20:45:48;;;;;;;21.13;8.10;;;;;;;-1.48;63.25;98690.29;3752128;93;21052;-80
2021/12/03 21:10:27;;;;;;;24.70;10.77;;;;;;;-1.70;65.52;98681.13;3807277;92;21100;-81
2021/12/03 21:16:50;;;;;;;33.47;13.27;;;;;;;-1.72;65.50;98683.85;3806228;92;21107;-81
2021/12/03 21:22:47;;;;;;;33.95;12.00;;;;;;;-1.86;65.28;98669.67;3834463;92;21600;-80
2021/12/03 21:41:23;;;;;;;21.90;9.63;;;;;;;-1.77;65.17;98651.79;3840692;91;21621;-79
2021/12/03 21:47:24;;;;;;;26.20;9.27;;;;;;;-1.69;64.83;98649.16;3847484;92;21022;-80
2021/12/03 21:53:26;;;;;;;25.27;9.67;;;;;;;-1.62;65.41;98650.09;3841618;92;21055;-81
2021/12/03 21:59:27;;;;;;;24.57;9.80;;;;;;;-1.57;65.19;98646.72;3844258;91;21069;-80
2021/12/03 22:05:29;;;;;;;26.37;10.40;;;;;;;-1.50;65.54;98646.88;3839643;91;21565;-81
2021/12/03 22:11:31;;;;;;;27.63;10.10;;;;;;;-1.42;65.51;98642.09;3837505;91;21019;-81
2021/12/03 22:17:34;;;;;;;22.10;9.37;;;;;;;-1.40;65.73;98627.28;3835789;91;21191;-80
2021/12/03 22:23:37;;;;;;;22.47;9.40;;;;;;;-1.35;65.34;98622.33;3808193;92;21048;-80
2021/12/03 22:29:40;;;;;;;27.40;10.50;;;;;;;-1.31;65.30;98617.38;3807013;92;21976;-81
2021/12/03 22:35:41;;;;;;;30.77;11.63;;;;;;;-1.28;65.11;98600.65;3805916;92;21686;-81
2021/12/03 22:41:45;;;;;;;22.10;9.00;;;;;;;-1.27;65.00;98594.20;3805841;92;21582;-81
2021/12/03 22:48:00;;;;;;;20.17;8.30;;;;;;;-1.30;65.42;98580.02;3810301;92;21250;-81
2021/12/03 22:54:01;;;;;;;17.07;7.37;;;;;;;-1.27;65.21;98560.63;3806283;92;21528;-80
2021/12/03 23:00:08;;;;;;;23.33;9.27;;;;;;;-1.23;65.56;98556.22;3809569;92;21607;-80
2021/12/03 23:06:10;;;;;;;23.07;8.47;;;;;;;-1.18;65.38;98560.66;3808023;92;21102;-81
2021/12/03 23:12:12;;;;;;;29.17;11.97;;;;;;;-1.18;65.38;98555.28;3807691;92;21574;-81
2021/12/03 23:18:14;;;;;;;28.70;12.10;;;;;;;-1.31;64.80;98543.53;3808114;92;21192;-80
2021/12/03 23:24:16;;;;;;;43.57;14.73;;;;;;;-1.40;64.74;98539.22;3810799;92;21114;-80
2021/12/03 23:30:18;;;;;;;48.50;16.30;;;;;;;-1.55;64.66;98534.25;3817650;92;21075;-80
2021/12/03 23:36:19;;;;;;;42.67;15.73;;;;;;;-1.68;64.87;98531.88;3818732;92;21080;-80
2021/12/03 23:42:20;;;;;;;48.30;17.17;;;;;;;-1.88;64.40;98521.08;3813645;92;21110;-80
2021/12/03 23:48:22;;;;;;;78.83;21.70;;;;;;;-2.02;64.38;98506.94;3817058;92;21638;-80
2021/12/03 23:54:27;;;;;;;21.80;8.83;;;;;;;-2.13;64.17;98508.84;3828144;92;21123;-80
